Fort Nelson Airport
CYYE : rendu visible

Aérodrome :











RETROUVEZ-NOUS SUR...

 
LOGIN :

S'inscrire | Disclaimer

   EN    FR    IT 

 









Légende :    VFR   VFR Marginal   IFR   IFR Intensif   IFR Très Intensif
Visi : 
Plafond : 
>= 8 km
>= 3000ft
5 à 8 km
1000 à 3000 ft
1500m à 5 km
500 à 1000 ft
800 à 1500m
200 à 500 ft
< 800m
< 200 ft
Symboles :   Orages  Brouillard  Fortes neiges  Fortes précipitations  Vent > 20 kt






- Altitude de l'aérodrome : 1253 ft
- Code IATA : YYE


CYYE - Fort Nelson

DERNIER METAR :
  • 100700Z 03003KT 15SM -SN OVC095 M12/M14 A3011 RMK AC8 SLP231

METARs EXPIRÉS :
  • 100600Z 08003KT 12SM -SN BKN055 BKN087 M13/M15 A3009 RMK SC5AC2 SLP227
  • 100500Z 08003KT 12SM -SN FEW010 BKN057 BKN093 M13/M15 A3011 RMK SF1SC4AC2 SLP233

TAF TAF CYYE
Valide du 10 à 07h jusqu'au 10 à 19h UTC


100638Z 1007/1019 VRB03KT P6SM -SN FEW010 BKN050 OVC090
TEMPO 1007/1009 5SM -SN SCT010 OVC050
FM100900 35005KT P6SM -SN SCT015 BKN040 OVC080
TEMPO 1009/1015 21/2SM -SN OVC015
PROB30 1009/1015 1SM -SHSN
FM101500 34005KT 1SM -SN OVC015
TEMPO 1015/1019 4SM -SN OVC025 RMK NXT FCST BY 101300Z



MET'MAP, la Météo Aéronautique d'un coup d'oeil ! - Copyright ORBIFLY Décembre 2007 - Disclaimer

ORBIFLY MET'MAP TEAM :

Programmation & Développement : Alexandra Zaïnal
Sur une idée originale de : Baudouin d'Aumeries
Assistance à la programmation : Marc-Olivier Méhu
Soutien technique & logistique : Manuel Goepfert

Contact : metmap@orbifly.com




SOURCES & CREDITS :

   NOAA       Earth
Advisory